sensor_id;sensor_type;location;lat;lon;timestamp;P1;durP1;ratioP1;P2;durP2;ratioP2
21862;SDS011;11096;51.338;12.524;2024-02-04T00:01:40;8.88;;;5.68;;
21862;SDS011;11096;51.338;12.524;2024-02-04T00:04:06;10.23;;;5.20;;
21862;SDS011;11096;51.338;12.524;2024-02-04T00:06:31;8.43;;;5.68;;
21862;SDS011;11096;51.338;12.524;2024-02-04T00:08:56;7.88;;;4.85;;
21862;SDS011;11096;51.338;12.524;2024-02-04T00:11:22;8.18;;;5.43;;
21862;SDS011;11096;51.338;12.524;2024-02-04T00:13:47;7.47;;;5.28;;
21862;SDS011;11096;51.338;12.524;2024-02-04T00:16:12;8.75;;;5.78;;
21862;SDS011;11096;51.338;12.524;2024-02-04T00:18:38;7.95;;;5.38;;
21862;SDS011;11096;51.338;12.524;2024-02-04T00:21:03;8.27;;;5.80;;
21862;SDS011;11096;51.338;12.524;2024-02-04T00:23:28;8.10;;;5.88;;
21862;SDS011;11096;51.338;12.524;2024-02-04T00:25:54;7.05;;;5.15;;
21862;SDS011;11096;51.338;12.524;2024-02-04T00:28:19;10.18;;;5.70;;
21862;SDS011;11096;51.338;12.524;2024-02-04T00:30:45;10.23;;;6.57;;
21862;SDS011;11096;51.338;12.524;2024-02-04T00:33:10;11.10;;;6.82;;
21862;SDS011;11096;51.338;12.524;2024-02-04T00:35:35;10.85;;;6.97;;
21862;SDS011;11096;51.338;12.524;2024-02-04T00:38:01;11.55;;;6.22;;
21862;SDS011;11096;51.338;12.524;2024-02-04T00:40:28;9.32;;;6.20;;
21862;SDS011;11096;51.338;12.524;2024-02-04T00:42:53;10.68;;;6.47;;
21862;SDS011;11096;51.338;12.524;2024-02-04T00:45:18;11.63;;;6.32;;
21862;SDS011;11096;51.338;12.524;2024-02-04T00:47:43;12.18;;;7.65;;
21862;SDS011;11096;51.338;12.524;2024-02-04T00:50:09;12.40;;;7.10;;
21862;SDS011;11096;51.338;12.524;2024-02-04T00:52:34;13.73;;;6.97;;
21862;SDS011;11096;51.338;12.524;2024-02-04T00:54:59;12.88;;;6.85;;
21862;SDS011;11096;51.338;12.524;2024-02-04T00:57:25;12.02;;;7.25;;
21862;SDS011;11096;51.338;12.524;2024-02-04T00:59:50;12.05;;;7.38;;
21862;SDS011;11096;51.338;12.524;2024-02-04T01:02:16;11.02;;;7.15;;
21862;SDS011;11096;51.338;12.524;2024-02-04T01:04:41;11.23;;;7.20;;
21862;SDS011;11096;51.338;12.524;2024-02-04T01:07:06;11.63;;;7.03;;
21862;SDS011;11096;51.338;12.524;2024-02-04T01:09:31;10.75;;;7.13;;
21862;SDS011;11096;51.338;12.524;2024-02-04T01:11:57;11.45;;;7.25;;
21862;SDS011;11096;51.338;12.524;2024-02-04T01:14:22;15.60;;;7.13;;
21862;SDS011;11096;51.338;12.524;2024-02-04T01:16:47;13.38;;;6.65;;
21862;SDS011;11096;51.338;12.524;2024-02-04T01:19:12;12.82;;;6.63;;
21862;SDS011;11096;51.338;12.524;2024-02-04T01:21:38;13.23;;;7.03;;
21862;SDS011;11096;51.338;12.524;2024-02-04T01:24:03;10.52;;;5.93;;
21862;SDS011;11096;51.338;12.524;2024-02-04T01:26:28;11.43;;;7.35;;
21862;SDS011;11096;51.338;12.524;2024-02-04T01:28:53;10.48;;;6.13;;
21862;SDS011;11096;51.338;12.524;2024-02-04T01:31:19;12.30;;;6.30;;
21862;SDS011;11096;51.338;12.524;2024-02-04T01:33:44;12.68;;;6.75;;
21862;SDS011;11096;51.338;12.524;2024-02-04T01:36:09;11.07;;;6.93;;
21862;SDS011;11096;51.338;12.524;2024-02-04T01:38:34;12.73;;;6.85;;
21862;SDS011;11096;51.338;12.524;2024-02-04T01:41:01;12.30;;;7.00;;
21862;SDS011;11096;51.338;12.524;2024-02-04T01:43:26;10.10;;;7.40;;
21862;SDS011;11096;51.338;12.524;2024-02-04T01:45:51;12.32;;;6.82;;
21862;SDS011;11096;51.338;12.524;2024-02-04T01:48:17;10.32;;;6.30;;
21862;SDS011;11096;51.338;12.524;2024-02-04T01:50:43;11.57;;;6.90;;
21862;SDS011;11096;51.338;12.524;2024-02-04T01:53:08;9.52;;;5.80;;
21862;SDS011;11096;51.338;12.524;2024-02-04T01:55:34;14.48;;;5.75;;
21862;SDS011;11096;51.338;12.524;2024-02-04T01:57:59;11.40;;;6.47;;
21862;SDS011;11096;51.338;12.524;2024-02-04T02:00:24;13.25;;;6.55;;
21862;SDS011;11096;51.338;12.524;2024-02-04T02:02:50;12.25;;;6.93;;
21862;SDS011;11096;51.338;12.524;2024-02-04T02:05:16;11.43;;;6.50;;
21862;SDS011;11096;51.338;12.524;2024-02-04T02:07:41;12.50;;;6.68;;
21862;SDS011;11096;51.338;12.524;2024-02-04T02:10:09;12.00;;;7.07;;
21862;SDS011;11096;51.338;12.524;2024-02-04T02:12:39;15.05;;;7.50;;
21862;SDS011;11096;51.338;12.524;2024-02-04T02:15:07;12.55;;;7.68;;
21862;SDS011;11096;51.338;12.524;2024-02-04T02:17:45;16.33;;;7.95;;
21862;SDS011;11096;51.338;12.524;2024-02-04T02:20:27;14.85;;;8.02;;
21862;SDS011;11096;51.338;12.524;2024-02-04T02:23:03;14.73;;;8.18;;
21862;SDS011;11096;51.338;12.524;2024-02-04T02:25:32;18.33;;;8.98;;
21862;SDS011;11096;51.338;12.524;2024-02-04T02:27:58;15.57;;;8.50;;
21862;SDS011;11096;51.338;12.524;2024-02-04T02:30:24;16.30;;;8.52;;
21862;SDS011;11096;51.338;12.524;2024-02-04T02:32:49;16.10;;;8.73;;
21862;SDS011;11096;51.338;12.524;2024-02-04T02:35:18;18.25;;;9.65;;
21862;SDS011;11096;51.338;12.524;2024-02-04T02:37:46;17.50;;;8.65;;
21862;SDS011;11096;51.338;12.524;2024-02-04T02:40:31;21.05;;;9.15;;
21862;SDS011;11096;51.338;12.524;2024-02-04T02:42:59;20.17;;;8.57;;
21862;SDS011;11096;51.338;12.524;2024-02-04T02:45:26;21.77;;;9.40;;
21862;SDS011;11096;51.338;12.524;2024-02-04T02:47:51;22.98;;;9.32;;
21862;SDS011;11096;51.338;12.524;2024-02-04T02:50:17;21.15;;;9.77;;
21862;SDS011;11096;51.338;12.524;2024-02-04T02:52:43;19.90;;;9.60;;
21862;SDS011;11096;51.338;12.524;2024-02-04T02:55:08;21.08;;;11.35;;
21862;SDS011;11096;51.338;12.524;2024-02-04T02:57:33;19.80;;;10.25;;
21862;SDS011;11096;51.338;12.524;2024-02-04T02:59:59;16.60;;;9.75;;
21862;SDS011;11096;51.338;12.524;2024-02-04T03:02:24;17.73;;;9.98;;
21862;SDS011;11096;51.338;12.524;2024-02-04T03:04:49;20.27;;;9.00;;
21862;SDS011;11096;51.338;12.524;2024-02-04T03:07:14;18.60;;;8.23;;
21862;SDS011;11096;51.338;12.524;2024-02-04T03:09:40;17.77;;;8.95;;
21862;SDS011;11096;51.338;12.524;2024-02-04T03:12:05;16.85;;;7.95;;
21862;SDS011;11096;51.338;12.524;2024-02-04T03:14:30;16.42;;;8.02;;
21862;SDS011;11096;51.338;12.524;2024-02-04T03:16:56;17.73;;;7.82;;
21862;SDS011;11096;51.338;12.524;2024-02-04T03:19:21;19.23;;;7.47;;
21862;SDS011;11096;51.338;12.524;2024-02-04T03:21:47;17.98;;;7.80;;
21862;SDS011;11096;51.338;12.524;2024-02-04T03:24:12;15.73;;;7.15;;
21862;SDS011;11096;51.338;12.524;2024-02-04T03:26:37;20.92;;;8.13;;
21862;SDS011;11096;51.338;12.524;2024-02-04T03:29:02;15.13;;;7.43;;
21862;SDS011;11096;51.338;12.524;2024-02-04T03:31:29;16.65;;;7.63;;
21862;SDS011;11096;51.338;12.524;2024-02-04T03:33:55;15.93;;;7.10;;
21862;SDS011;11096;51.338;12.524;2024-02-04T03:36:21;16.95;;;7.95;;
21862;SDS011;11096;51.338;12.524;2024-02-04T03:38:47;15.15;;;7.15;;
21862;SDS011;11096;51.338;12.524;2024-02-04T03:41:12;13.32;;;6.65;;
21862;SDS011;11096;51.338;12.524;2024-02-04T03:43:37;12.90;;;6.28;;
21862;SDS011;11096;51.338;12.524;2024-02-04T03:46:03;12.40;;;5.78;;
21862;SDS011;11096;51.338;12.524;2024-02-04T03:48:28;12.23;;;6.38;;
21862;SDS011;11096;51.338;12.524;2024-02-04T03:50:53;16.00;;;6.72;;
21862;SDS011;11096;51.338;12.524;2024-02-04T03:53:18;14.05;;;6.57;;
21862;SDS011;11096;51.338;12.524;2024-02-04T03:55:46;14.07;;;5.75;;
21862;SDS011;11096;51.338;12.524;2024-02-04T03:58:11;11.10;;;6.15;;
21862;SDS011;11096;51.338;12.524;2024-02-04T04:00:36;12.48;;;6.15;;
21862;SDS011;11096;51.338;12.524;2024-02-04T04:03:01;14.95;;;6.20;;
21862;SDS011;11096;51.338;12.524;2024-02-04T04:05:27;13.43;;;6.53;;
21862;SDS011;11096;51.338;12.524;2024-02-04T04:07:52;10.75;;;5.07;;
21862;SDS011;11096;51.338;12.524;2024-02-04T04:10:17;12.90;;;5.90;;
21862;SDS011;11096;51.338;12.524;2024-02-04T04:12:42;12.15;;;5.75;;
21862;SDS011;11096;51.338;12.524;2024-02-04T04:15:08;12.48;;;5.63;;
21862;SDS011;11096;51.338;12.524;2024-02-04T04:17:33;10.05;;;5.15;;
21862;SDS011;11096;51.338;12.524;2024-02-04T04:19:58;10.20;;;5.63;;
21862;SDS011;11096;51.338;12.524;2024-02-04T04:22:24;10.32;;;5.68;;
21862;SDS011;11096;51.338;12.524;2024-02-04T04:24:49;10.23;;;5.68;;
21862;SDS011;11096;51.338;12.524;2024-02-04T04:27:14;13.43;;;5.75;;
21862;SDS011;11096;51.338;12.524;2024-02-04T04:29:39;11.38;;;5.38;;
21862;SDS011;11096;51.338;12.524;2024-02-04T04:32:05;14.43;;;5.90;;
21862;SDS011;11096;51.338;12.524;2024-02-04T04:34:30;11.10;;;5.57;;
21862;SDS011;11096;51.338;12.524;2024-02-04T04:36:55;13.02;;;6.20;;
21862;SDS011;11096;51.338;12.524;2024-02-04T04:39:20;9.57;;;5.50;;
21862;SDS011;11096;51.338;12.524;2024-02-04T04:41:46;10.75;;;5.97;;
21862;SDS011;11096;51.338;12.524;2024-02-04T04:44:11;11.00;;;5.72;;
21862;SDS011;11096;51.338;12.524;2024-02-04T04:46:39;12.23;;;6.30;;
21862;SDS011;11096;51.338;12.524;2024-02-04T04:49:05;14.73;;;6.47;;
21862;SDS011;11096;51.338;12.524;2024-02-04T04:51:30;18.15;;;7.63;;
21862;SDS011;11096;51.338;12.524;2024-02-04T04:53:55;14.40;;;7.82;;
21862;SDS011;11096;51.338;12.524;2024-02-04T04:56:20;14.32;;;7.47;;
21862;SDS011;11096;51.338;12.524;2024-02-04T04:58:46;17.52;;;7.75;;
21862;SDS011;11096;51.338;12.524;2024-02-04T05:01:11;19.75;;;7.70;;
21862;SDS011;11096;51.338;12.524;2024-02-04T05:03:36;17.70;;;8.10;;
21862;SDS011;11096;51.338;12.524;2024-02-04T05:06:01;16.10;;;7.68;;
21862;SDS011;11096;51.338;12.524;2024-02-04T05:08:27;15.13;;;8.05;;
21862;SDS011;11096;51.338;12.524;2024-02-04T05:10:52;14.20;;;7.20;;
21862;SDS011;11096;51.338;12.524;2024-02-04T05:13:17;18.20;;;8.00;;
21862;SDS011;11096;51.338;12.524;2024-02-04T05:15:42;16.45;;;6.88;;
21862;SDS011;11096;51.338;12.524;2024-02-04T05:18:08;17.30;;;7.25;;
21862;SDS011;11096;51.338;12.524;2024-02-04T05:20:33;14.38;;;5.63;;
21862;SDS011;11096;51.338;12.524;2024-02-04T05:22:59;13.13;;;6.55;;
21862;SDS011;11096;51.338;12.524;2024-02-04T05:25:25;11.20;;;5.50;;
21862;SDS011;11096;51.338;12.524;2024-02-04T05:27:50;12.45;;;5.75;;
21862;SDS011;11096;51.338;12.524;2024-02-04T05:30:15;11.60;;;5.40;;
21862;SDS011;11096;51.338;12.524;2024-02-04T05:32:41;11.40;;;5.65;;
21862;SDS011;11096;51.338;12.524;2024-02-04T05:35:07;13.15;;;5.95;;
21862;SDS011;11096;51.338;12.524;2024-02-04T05:37:32;10.35;;;5.28;;
21862;SDS011;11096;51.338;12.524;2024-02-04T05:39:58;11.77;;;5.38;;
21862;SDS011;11096;51.338;12.524;2024-02-04T05:42:23;15.77;;;6.72;;
21862;SDS011;11096;51.338;12.524;2024-02-04T05:44:49;14.40;;;6.35;;
21862;SDS011;11096;51.338;12.524;2024-02-04T05:47:14;13.07;;;6.47;;
21862;SDS011;11096;51.338;12.524;2024-02-04T05:49:39;16.40;;;6.47;;
21862;SDS011;11096;51.338;12.524;2024-02-04T05:52:05;16.90;;;7.30;;
21862;SDS011;11096;51.338;12.524;2024-02-04T05:54:30;14.02;;;6.85;;
21862;SDS011;11096;51.338;12.524;2024-02-04T05:56:55;16.77;;;7.93;;
21862;SDS011;11096;51.338;12.524;2024-02-04T05:59:21;15.73;;;7.80;;
21862;SDS011;11096;51.338;12.524;2024-02-04T06:01:46;17.58;;;7.43;;
21862;SDS011;11096;51.338;12.524;2024-02-04T06:04:11;19.45;;;7.40;;
21862;SDS011;11096;51.338;12.524;2024-02-04T06:06:37;18.55;;;8.27;;
21862;SDS011;11096;51.338;12.524;2024-02-04T06:09:02;18.17;;;7.28;;
21862;SDS011;11096;51.338;12.524;2024-02-04T06:11:27;17.63;;;8.73;;
21862;SDS011;11096;51.338;12.524;2024-02-04T06:13:53;17.13;;;8.45;;
21862;SDS011;11096;51.338;12.524;2024-02-04T06:16:18;17.70;;;7.80;;
21862;SDS011;11096;51.338;12.524;2024-02-04T06:18:44;17.35;;;7.57;;
21862;SDS011;11096;51.338;12.524;2024-02-04T06:21:09;19.90;;;7.97;;
21862;SDS011;11096;51.338;12.524;2024-02-04T06:23:34;15.05;;;7.45;;
21862;SDS011;11096;51.338;12.524;2024-02-04T06:26:00;18.98;;;7.80;;
21862;SDS011;11096;51.338;12.524;2024-02-04T06:28:25;14.85;;;7.40;;
21862;SDS011;11096;51.338;12.524;2024-02-04T06:30:50;16.67;;;7.72;;
21862;SDS011;11096;51.338;12.524;2024-02-04T06:33:16;15.93;;;6.97;;
21862;SDS011;11096;51.338;12.524;2024-02-04T06:35:41;9.98;;;6.22;;
21862;SDS011;11096;51.338;12.524;2024-02-04T06:38:06;12.63;;;6.07;;
21862;SDS011;11096;51.338;12.524;2024-02-04T06:40:31;11.60;;;6.05;;
21862;SDS011;11096;51.338;12.524;2024-02-04T06:42:57;8.57;;;5.38;;
21862;SDS011;11096;51.338;12.524;2024-02-04T06:45:22;6.85;;;4.43;;
21862;SDS011;11096;51.338;12.524;2024-02-04T06:47:47;8.60;;;4.95;;
21862;SDS011;11096;51.338;12.524;2024-02-04T06:50:13;7.00;;;4.50;;
21862;SDS011;11096;51.338;12.524;2024-02-04T06:52:42;7.35;;;4.43;;
21862;SDS011;11096;51.338;12.524;2024-02-04T06:55:08;6.60;;;3.78;;
21862;SDS011;11096;51.338;12.524;2024-02-04T06:57:33;5.88;;;3.83;;
21862;SDS011;11096;51.338;12.524;2024-02-04T06:59:58;5.45;;;3.13;;
21862;SDS011;11096;51.338;12.524;2024-02-04T07:02:23;4.10;;;2.85;;
21862;SDS011;11096;51.338;12.524;2024-02-04T07:04:49;4.25;;;2.78;;
21862;SDS011;11096;51.338;12.524;2024-02-04T07:07:14;5.60;;;2.67;;
21862;SDS011;11096;51.338;12.524;2024-02-04T07:09:39;3.88;;;2.25;;
21862;SDS011;11096;51.338;12.524;2024-02-04T07:12:05;4.45;;;2.78;;
21862;SDS011;11096;51.338;12.524;2024-02-04T07:14:30;4.13;;;2.42;;
21862;SDS011;11096;51.338;12.524;2024-02-04T07:16:55;3.42;;;2.33;;
21862;SDS011;11096;51.338;12.524;2024-02-04T07:19:20;3.45;;;2.53;;
21862;SDS011;11096;51.338;12.524;2024-02-04T07:21:46;3.10;;;2.33;;
21862;SDS011;11096;51.338;12.524;2024-02-04T07:24:11;3.38;;;2.30;;
21862;SDS011;11096;51.338;12.524;2024-02-04T07:26:36;2.60;;;2.15;;
21862;SDS011;11096;51.338;12.524;2024-02-04T07:29:01;3.85;;;2.40;;
21862;SDS011;11096;51.338;12.524;2024-02-04T07:31:27;2.97;;;2.33;;
21862;SDS011;11096;51.338;12.524;2024-02-04T07:33:52;2.17;;;1.98;;
21862;SDS011;11096;51.338;12.524;2024-02-04T07:36:17;4.75;;;2.67;;
21862;SDS011;11096;51.338;12.524;2024-02-04T07:38:43;4.13;;;3.00;;
21862;SDS011;11096;51.338;12.524;2024-02-04T07:41:08;6.18;;;2.83;;
21862;SDS011;11096;51.338;12.524;2024-02-04T07:43:33;4.68;;;2.30;;
21862;SDS011;11096;51.338;12.524;2024-02-04T07:45:58;2.42;;;2.22;;
21862;SDS011;11096;51.338;12.524;2024-02-04T07:48:24;2.83;;;1.98;;
21862;SDS011;11096;51.338;12.524;2024-02-04T07:50:49;2.22;;;1.88;;
21862;SDS011;11096;51.338;12.524;2024-02-04T07:53:14;2.53;;;2.10;;
21862;SDS011;11096;51.338;12.524;2024-02-04T07:55:40;2.25;;;1.77;;
21862;SDS011;11096;51.338;12.524;2024-02-04T07:58:05;5.22;;;2.35;;
21862;SDS011;11096;51.338;12.524;2024-02-04T08:00:30;2.88;;;1.95;;
21862;SDS011;11096;51.338;12.524;2024-02-04T08:02:55;2.03;;;1.67;;
21862;SDS011;11096;51.338;12.524;2024-02-04T08:05:21;2.88;;;1.55;;
21862;SDS011;11096;51.338;12.524;2024-02-04T08:07:46;1.98;;;1.40;;
21862;SDS011;11096;51.338;12.524;2024-02-04T08:10:11;1.60;;;1.40;;
21862;SDS011;11096;51.338;12.524;2024-02-04T08:12:36;1.63;;;1.40;;
21862;SDS011;11096;51.338;12.524;2024-02-04T08:15:02;2.20;;;1.50;;
21862;SDS011;11096;51.338;12.524;2024-02-04T08:17:28;3.13;;;1.70;;
21862;SDS011;11096;51.338;12.524;2024-02-04T08:19:55;2.00;;;1.50;;
21862;SDS011;11096;51.338;12.524;2024-02-04T08:22:21;3.78;;;1.20;;
21862;SDS011;11096;51.338;12.524;2024-02-04T08:24:46;1.65;;;1.30;;
21862;SDS011;11096;51.338;12.524;2024-02-04T08:27:12;3.00;;;1.20;;
21862;SDS011;11096;51.338;12.524;2024-02-04T08:29:37;2.50;;;1.15;;
21862;SDS011;11096;51.338;12.524;2024-02-04T08:32:02;2.08;;;1.48;;
21862;SDS011;11096;51.338;12.524;2024-02-04T08:34:28;2.63;;;1.70;;
21862;SDS011;11096;51.338;12.524;2024-02-04T08:36:53;1.52;;;1.10;;
21862;SDS011;11096;51.338;12.524;2024-02-04T08:39:18;1.67;;;1.38;;
21862;SDS011;11096;51.338;12.524;2024-02-04T08:41:44;1.20;;;1.10;;
21862;SDS011;11096;51.338;12.524;2024-02-04T08:44:09;1.70;;;1.33;;
21862;SDS011;11096;51.338;12.524;2024-02-04T08:46:34;1.98;;;1.38;;
21862;SDS011;11096;51.338;12.524;2024-02-04T08:49:00;2.30;;;1.77;;
21862;SDS011;11096;51.338;12.524;2024-02-04T08:51:25;4.20;;;1.67;;
21862;SDS011;11096;51.338;12.524;2024-02-04T08:53:50;4.07;;;2.50;;
21862;SDS011;11096;51.338;12.524;2024-02-04T08:56:15;4.88;;;2.50;;
21862;SDS011;11096;51.338;12.524;2024-02-04T08:58:41;5.03;;;3.15;;
21862;SDS011;11096;51.338;12.524;2024-02-04T09:01:06;4.07;;;2.42;;
21862;SDS011;11096;51.338;12.524;2024-02-04T09:03:31;5.63;;;2.90;;
21862;SDS011;11096;51.338;12.524;2024-02-04T09:05:57;4.72;;;3.28;;
21862;SDS011;11096;51.338;12.524;2024-02-04T09:08:23;2.25;;;1.98;;
21862;SDS011;11096;51.338;12.524;2024-02-04T09:10:48;4.22;;;2.30;;
21862;SDS011;11096;51.338;12.524;2024-02-04T09:13:13;10.00;;;4.65;;
21862;SDS011;11096;51.338;12.524;2024-02-04T09:15:38;9.18;;;5.32;;
21862;SDS011;11096;51.338;12.524;2024-02-04T09:18:04;3.20;;;1.90;;
21862;SDS011;11096;51.338;12.524;2024-02-04T09:20:29;4.50;;;2.90;;
21862;SDS011;11096;51.338;12.524;2024-02-04T09:22:54;4.03;;;2.90;;
21862;SDS011;11096;51.338;12.524;2024-02-04T09:25:19;5.10;;;2.40;;
21862;SDS011;11096;51.338;12.524;2024-02-04T09:27:45;4.05;;;2.50;;
21862;SDS011;11096;51.338;12.524;2024-02-04T09:30:10;3.42;;;2.40;;
21862;SDS011;11096;51.338;12.524;2024-02-04T09:32:36;2.58;;;1.92;;
21862;SDS011;11096;51.338;12.524;2024-02-04T09:35:02;2.50;;;1.83;;
21862;SDS011;11096;51.338;12.524;2024-02-04T09:37:27;1.33;;;1.23;;
21862;SDS011;11096;51.338;12.524;2024-02-04T09:39:52;3.15;;;1.85;;
21862;SDS011;11096;51.338;12.524;2024-02-04T09:42:21;2.22;;;1.65;;
21862;SDS011;11096;51.338;12.524;2024-02-04T09:44:47;3.20;;;1.90;;
21862;SDS011;11096;51.338;12.524;2024-02-04T09:47:13;3.03;;;2.10;;
21862;SDS011;11096;51.338;12.524;2024-02-04T09:49:39;4.20;;;2.72;;
21862;SDS011;11096;51.338;12.524;2024-02-04T09:52:06;5.60;;;3.60;;
21862;SDS011;11096;51.338;12.524;2024-02-04T09:54:33;6.07;;;3.58;;
21862;SDS011;11096;51.338;12.524;2024-02-04T09:56:59;5.90;;;3.80;;
21862;SDS011;11096;51.338;12.524;2024-02-04T09:59:24;5.13;;;3.65;;
21862;SDS011;11096;51.338;12.524;2024-02-04T10:01:49;6.25;;;4.38;;
21862;SDS011;11096;51.338;12.524;2024-02-04T10:04:15;7.07;;;4.70;;
21862;SDS011;11096;51.338;12.524;2024-02-04T10:06:40;6.22;;;4.35;;
21862;SDS011;11096;51.338;12.524;2024-02-04T10:09:05;7.05;;;4.88;;
21862;SDS011;11096;51.338;12.524;2024-02-04T10:11:31;10.70;;;5.97;;
21862;SDS011;11096;51.338;12.524;2024-02-04T10:13:56;9.90;;;6.15;;
21862;SDS011;11096;51.338;12.524;2024-02-04T10:16:22;11.07;;;6.63;;
21862;SDS011;11096;51.338;12.524;2024-02-04T10:18:48;10.38;;;5.85;;
21862;SDS011;11096;51.338;12.524;2024-02-04T10:21:20;9.82;;;5.82;;
21862;SDS011;11096;51.338;12.524;2024-02-04T10:23:49;12.05;;;6.35;;
21862;SDS011;11096;51.338;12.524;2024-02-04T10:26:15;9.50;;;6.60;;
21862;SDS011;11096;51.338;12.524;2024-02-04T10:28:40;10.18;;;6.30;;
21862;SDS011;11096;51.338;12.524;2024-02-04T10:31:09;9.30;;;6.80;;
21862;SDS011;11096;51.338;12.524;2024-02-04T10:33:37;9.02;;;6.57;;
21862;SDS011;11096;51.338;12.524;2024-02-04T10:36:03;9.93;;;5.90;;
21862;SDS011;11096;51.338;12.524;2024-02-04T10:38:28;8.23;;;5.53;;
21862;SDS011;11096;51.338;12.524;2024-02-04T10:40:54;8.75;;;5.22;;
21862;SDS011;11096;51.338;12.524;2024-02-04T10:43:20;6.28;;;4.70;;
21862;SDS011;11096;51.338;12.524;2024-02-04T10:45:45;7.32;;;4.50;;
21862;SDS011;11096;51.338;12.524;2024-02-04T10:48:11;5.70;;;3.17;;
21862;SDS011;11096;51.338;12.524;2024-02-04T10:50:39;4.45;;;3.20;;
21862;SDS011;11096;51.338;12.524;2024-02-04T10:53:05;3.35;;;2.70;;
21862;SDS011;11096;51.338;12.524;2024-02-04T10:55:32;5.57;;;3.55;;
21862;SDS011;11096;51.338;12.524;2024-02-04T10:58:00;4.53;;;3.00;;
21862;SDS011;11096;51.338;12.524;2024-02-04T11:00:26;4.57;;;2.97;;
21862;SDS011;11096;51.338;12.524;2024-02-04T11:02:52;3.67;;;2.33;;
21862;SDS011;11096;51.338;12.524;2024-02-04T11:05:19;5.05;;;2.55;;
21862;SDS011;11096;51.338;12.524;2024-02-04T11:07:44;5.97;;;3.10;;
21862;SDS011;11096;51.338;12.524;2024-02-04T11:10:10;3.78;;;2.58;;
21862;SDS011;11096;51.338;12.524;2024-02-04T11:12:35;4.88;;;3.40;;
21862;SDS011;11096;51.338;12.524;2024-02-04T11:15:03;7.82;;;3.63;;
21862;SDS011;11096;51.338;12.524;2024-02-04T11:27:49;10.68;;;4.68;;
21862;SDS011;11096;51.338;12.524;2024-02-04T11:30:15;15.45;;;7.47;;
21862;SDS011;11096;51.338;12.524;2024-02-04T11:32:41;15.10;;;6.28;;
21862;SDS011;11096;51.338;12.524;2024-02-04T11:35:06;10.05;;;5.35;;
21862;SDS011;11096;51.338;12.524;2024-02-04T11:37:32;7.93;;;5.47;;
21862;SDS011;11096;51.338;12.524;2024-02-04T11:39:58;9.05;;;6.05;;
21862;SDS011;11096;51.338;12.524;2024-02-04T11:42:24;9.38;;;4.78;;
21862;SDS011;11096;51.338;12.524;2024-02-04T11:44:49;8.68;;;5.40;;
21862;SDS011;11096;51.338;12.524;2024-02-04T11:47:25;9.23;;;5.40;;
21862;SDS011;11096;51.338;12.524;2024-02-04T11:49:53;8.80;;;5.97;;
21862;SDS011;11096;51.338;12.524;2024-02-04T11:52:19;10.38;;;6.32;;
21862;SDS011;11096;51.338;12.524;2024-02-04T11:54:44;11.40;;;6.70;;
21862;SDS011;11096;51.338;12.524;2024-02-04T11:57:09;13.48;;;6.88;;
21862;SDS011;11096;51.338;12.524;2024-02-04T11:59:35;9.77;;;6.28;;
21862;SDS011;11096;51.338;12.524;2024-02-04T12:02:05;10.35;;;6.07;;
21862;SDS011;11096;51.338;12.524;2024-02-04T12:04:31;15.27;;;6.72;;
21862;SDS011;11096;51.338;12.524;2024-02-04T12:06:57;11.68;;;6.50;;
21862;SDS011;11096;51.338;12.524;2024-02-04T12:09:22;9.43;;;5.97;;
21862;SDS011;11096;51.338;12.524;2024-02-04T12:11:47;9.63;;;6.25;;
21862;SDS011;11096;51.338;12.524;2024-02-04T12:14:12;11.55;;;7.10;;
21862;SDS011;11096;51.338;12.524;2024-02-04T12:16:39;12.10;;;8.05;;
21862;SDS011;11096;51.338;12.524;2024-02-04T12:19:05;12.50;;;8.35;;
21862;SDS011;11096;51.338;12.524;2024-02-04T12:21:30;9.23;;;7.20;;
21862;SDS011;11096;51.338;12.524;2024-02-04T12:23:56;9.95;;;6.72;;
21862;SDS011;11096;51.338;12.524;2024-02-04T12:26:22;8.40;;;5.72;;
21862;SDS011;11096;51.338;12.524;2024-02-04T12:28:48;11.23;;;6.10;;
21862;SDS011;11096;51.338;12.524;2024-02-04T12:31:20;10.32;;;5.55;;
21862;SDS011;11096;51.338;12.524;2024-02-04T12:33:55;8.57;;;5.32;;
21862;SDS011;11096;51.338;12.524;2024-02-04T12:36:23;9.07;;;5.32;;
21862;SDS011;11096;51.338;12.524;2024-02-04T12:38:55;9.88;;;5.72;;
21862;SDS011;11096;51.338;12.524;2024-02-04T12:41:21;7.93;;;5.13;;
21862;SDS011;11096;51.338;12.524;2024-02-04T12:43:50;12.38;;;7.03;;
21862;SDS011;11096;51.338;12.524;2024-02-04T12:46:17;10.18;;;5.78;;
21862;SDS011;11096;51.338;12.524;2024-02-04T12:48:42;8.77;;;5.60;;
21862;SDS011;11096;51.338;12.524;2024-02-04T12:51:07;6.93;;;5.75;;
21862;SDS011;11096;51.338;12.524;2024-02-04T12:53:33;7.75;;;5.50;;
21862;SDS011;11096;51.338;12.524;2024-02-04T12:55:58;7.68;;;5.20;;
21862;SDS011;11096;51.338;12.524;2024-02-04T12:58:24;7.03;;;4.82;;
21862;SDS011;11096;51.338;12.524;2024-02-04T13:00:58;5.82;;;4.45;;
21862;SDS011;11096;51.338;12.524;2024-02-04T13:03:24;6.30;;;4.25;;
21862;SDS011;11096;51.338;12.524;2024-02-04T13:05:49;6.28;;;4.47;;
21862;SDS011;11096;51.338;12.524;2024-02-04T13:08:14;5.43;;;3.63;;
21862;SDS011;11096;51.338;12.524;2024-02-04T13:10:43;7.32;;;3.95;;
21862;SDS011;11096;51.338;12.524;2024-02-04T13:13:10;6.30;;;3.95;;
21862;SDS011;11096;51.338;12.524;2024-02-04T13:15:42;8.27;;;3.55;;
21862;SDS011;11096;51.338;12.524;2024-02-04T13:18:08;7.10;;;4.07;;
21862;SDS011;11096;51.338;12.524;2024-02-04T13:20:33;5.88;;;3.88;;
21862;SDS011;11096;51.338;12.524;2024-02-04T13:22:58;4.68;;;3.55;;
21862;SDS011;11096;51.338;12.524;2024-02-04T13:25:25;4.80;;;3.30;;
21862;SDS011;11096;51.338;12.524;2024-02-04T13:27:50;4.93;;;2.90;;
21862;SDS011;11096;51.338;12.524;2024-02-04T13:30:16;4.05;;;2.75;;
21862;SDS011;11096;51.338;12.524;2024-02-04T13:32:42;5.60;;;2.60;;
21862;SDS011;11096;51.338;12.524;2024-02-04T13:35:07;3.92;;;2.80;;
21862;SDS011;11096;51.338;12.524;2024-02-04T13:37:36;7.65;;;2.90;;
21862;SDS011;11096;51.338;12.524;2024-02-04T13:40:02;4.30;;;2.70;;
21862;SDS011;11096;51.338;12.524;2024-02-04T13:42:28;2.85;;;2.50;;
21862;SDS011;11096;51.338;12.524;2024-02-04T13:44:54;4.10;;;2.65;;
21862;SDS011;11096;51.338;12.524;2024-02-04T13:47:19;6.90;;;2.75;;
21862;SDS011;11096;51.338;12.524;2024-02-04T13:49:44;4.63;;;2.38;;
21862;SDS011;11096;51.338;12.524;2024-02-04T13:52:09;8.45;;;2.70;;
21862;SDS011;11096;51.338;12.524;2024-02-04T13:54:35;7.68;;;2.97;;
21862;SDS011;11096;51.338;12.524;2024-02-04T13:57:00;5.20;;;2.50;;
21862;SDS011;11096;51.338;12.524;2024-02-04T13:59:25;4.80;;;2.30;;
21862;SDS011;11096;51.338;12.524;2024-02-04T14:01:50;4.45;;;2.22;;
21862;SDS011;11096;51.338;12.524;2024-02-04T14:04:16;4.80;;;2.38;;
21862;SDS011;11096;51.338;12.524;2024-02-04T14:06:41;7.05;;;2.60;;
21862;SDS011;11096;51.338;12.524;2024-02-04T14:09:06;4.22;;;2.40;;
21862;SDS011;11096;51.338;12.524;2024-02-04T14:11:31;5.50;;;2.75;;
21862;SDS011;11096;51.338;12.524;2024-02-04T14:13:57;8.32;;;3.00;;
21862;SDS011;11096;51.338;12.524;2024-02-04T14:16:22;4.07;;;2.72;;
21862;SDS011;11096;51.338;12.524;2024-02-04T14:18:47;12.43;;;6.20;;
21862;SDS011;11096;51.338;12.524;2024-02-04T14:21:12;12.40;;;5.90;;
21862;SDS011;11096;51.338;12.524;2024-02-04T14:23:40;17.10;;;7.55;;
21862;SDS011;11096;51.338;12.524;2024-02-04T14:26:06;20.63;;;8.90;;
21862;SDS011;11096;51.338;12.524;2024-02-04T14:28:34;15.27;;;7.32;;
21862;SDS011;11096;51.338;12.524;2024-02-04T14:31:06;9.65;;;4.28;;